Saturday, November 01, 2014
01:13 UTC
  |  Log In   |  Register Free
Airport Search:

Coffeyville Municipal Airport
(KCFV)

Coffeyville Municipal Airport Diagram
No Airport Diagram Available

FAA data valid effective September 18, 2014 - November 13, 2014 (unless otherwise noted).

 
 
 
 
 
 
 
 
 
 
 
 
 
 

Current Aviation Weather for Coffeyville Municipal Airport (KCFV)

The most recent METAR observation for KCFV was updated at: 0008
METAR Summary (Translated METAR)
KCFV
312352Z AUTO 02006KT 10SM CLR 05/M06 A3042 RMK AO2 SLP305 T00501056 10106 20050 50003
KIDP
312355Z AUTO 03006KT 10SM CLR 03/M06 A3042 RMK AO2
(10.6 nm NW from KCFV)
KPPF
312352Z AUTO 03004KT 10SM CLR 05/M06 A3043 RMK AO2 SLP308 T00501061 10106 20050 50002
(14.6 nm NE from KCFV)
TAF
No TAF information found within 50 nm of KCFV
  Airport Weather Conditions for KCFV

 Current Weather at CFV
41° F
Fair
North winds at 6.9 mph
CFV NOAA Radar

Pressure: 30.42 in
Humidity: 47%
Wind: North at 6.9 MPH (6 KT)
Dew Point: 21.9°F
Visibility: 10.00 mi


Airport Weather Forecast for KCFV

Translated METAR and TAF for KCFV
Translated METAR for KCFV (0108 UTC 01 November 2014)
found at http://aviationweather.gov/adds/metars/
 
METAR text: KCFV 010052Z AUTO 02006KT 10SM CLR 04/M06 A3043 RMK AO2 SLP310 T00391056
Conditions at: KCFV (COFFEYVILLE , KS, US) observed 0052 UTC 01 November 2014
Temperature: 3.9°C (39°F)
Dewpoint: -5.6°C (22°F) [RH = 50%]
Pressure (altimeter): 30.43 inches Hg (1030.6 mb)
[Sea-level pressure: 1031.0 mb]
Winds: from the NNE (20 degrees) at 7 MPH (6 knots; 3.1 m/s)
Visibility: 10 or more miles (16+ km)
Ceiling: at least 12,000 feet AGL
Clouds: sky clear below 12,000 feet AGL
Weather: automated observation with no human augmentation;
there may or may not be significant weather present at this time
Translated TAF for KCFV

There is no translated TAF available for this airport

Find All Airport Services Find A Hotel Find A Rental Car Find A Golf Course Find A Restaurant $100 Hamburger



FBO's on the Field
FBO Company Facility Photos Services Transportation Aviation Fuel Prices: Prices include tax
Catering Weather Repair Courtesy Rental Type 100LL JetA JetA+ MOGAS 8087
 
Coffeyville Aircraft, Inc

This FBO has not yet been rated
FS:Phillips 66
Last Updated: Oct-27
Login to update fuel prices
SS:
Contact Coffeyville Aircraft, IncMore FBO Information
 
Add another FBO Facility Photos Catering Weather Repair Courtesy Rental Type 100LL JetA JetA+ MOGAS 8087
Services Transportation Aviation Fuel Prices: Prices include tax


model-print
model-print
model-print
model-print